sensor_id;sensor_type;location;lat;lon;timestamp;P1;durP1;ratioP1;P2;durP2;ratioP2
56255;SDS011;57229;51.432;-2.598;2023-11-21T05:45:33;5.60;;;5.20;;
56255;SDS011;57229;51.432;-2.598;2023-11-21T05:47:59;5.40;;;5.00;;
56255;SDS011;57229;51.432;-2.598;2023-11-21T05:50:25;5.38;;;5.07;;
56255;SDS011;57229;51.432;-2.598;2023-11-21T05:52:50;5.50;;;5.18;;
56255;SDS011;57229;51.432;-2.598;2023-11-21T05:55:16;5.50;;;5.18;;
56255;SDS011;57229;51.432;-2.598;2023-11-21T05:57:42;5.80;;;5.30;;
56255;SDS011;57229;51.432;-2.598;2023-11-21T06:00:09;5.35;;;5.05;;
56255;SDS011;57229;51.432;-2.598;2023-11-21T06:02:56;5.40;;;5.10;;
56255;SDS011;57229;51.432;-2.598;2023-11-21T06:05:23;5.40;;;5.00;;
56255;SDS011;57229;51.432;-2.598;2023-11-21T06:07:53;5.50;;;5.10;;
56255;SDS011;57229;51.432;-2.598;2023-11-21T06:10:21;5.75;;;5.35;;
56255;SDS011;57229;51.432;-2.598;2023-11-21T06:12:48;5.68;;;5.20;;
56255;SDS011;57229;51.432;-2.598;2023-11-21T06:15:14;5.90;;;5.35;;
56255;SDS011;57229;51.432;-2.598;2023-11-21T06:17:41;5.35;;;5.05;;
56255;SDS011;57229;51.432;-2.598;2023-11-21T06:20:09;5.82;;;5.43;;
56255;SDS011;57229;51.432;-2.598;2023-11-21T06:22:39;5.40;;;5.00;;
56255;SDS011;57229;51.432;-2.598;2023-11-21T06:25:16;5.55;;;5.15;;
56255;SDS011;57229;51.432;-2.598;2023-11-21T06:27:43;5.60;;;5.30;;
56255;SDS011;57229;51.432;-2.598;2023-11-21T06:30:12;6.43;;;5.80;;
56255;SDS011;57229;51.432;-2.598;2023-11-21T06:32:40;5.72;;;5.32;;
56255;SDS011;57229;51.432;-2.598;2023-11-21T06:35:10;5.30;;;5.00;;
56255;SDS011;57229;51.432;-2.598;2023-11-21T06:37:36;5.18;;;4.88;;
56255;SDS011;57229;51.432;-2.598;2023-11-21T06:40:11;5.78;;;5.20;;
56255;SDS011;57229;51.432;-2.598;2023-11-21T06:42:40;5.40;;;5.00;;
56255;SDS011;57229;51.432;-2.598;2023-11-21T10:14:50;5.30;;;4.80;;
56255;SDS011;57229;51.432;-2.598;2023-11-21T10:17:18;6.72;;;4.97;;
56255;SDS011;57229;51.432;-2.598;2023-11-21T10:19:47;5.72;;;5.22;;
56255;SDS011;57229;51.432;-2.598;2023-11-21T10:22:14;5.15;;;4.75;;
56255;SDS011;57229;51.432;-2.598;2023-11-21T10:24:41;4.93;;;4.60;;
56255;SDS011;57229;51.432;-2.598;2023-11-21T10:27:08;5.00;;;4.60;;
56255;SDS011;57229;51.432;-2.598;2023-11-21T10:29:34;5.03;;;4.53;;
56255;SDS011;57229;51.432;-2.598;2023-11-21T10:32:01;5.40;;;4.88;;
56255;SDS011;57229;51.432;-2.598;2023-11-21T10:34:27;5.40;;;4.90;;
56255;SDS011;57229;51.432;-2.598;2023-11-21T10:36:53;5.65;;;5.00;;
56255;SDS011;57229;51.432;-2.598;2023-11-21T10:39:21;6.47;;;4.90;;
56255;SDS011;57229;51.432;-2.598;2023-11-21T10:41:48;5.95;;;4.85;;
56255;SDS011;57229;51.432;-2.598;2023-11-21T10:44:15;5.60;;;5.00;;
56255;SDS011;57229;51.432;-2.598;2023-11-21T10:46:52;6.68;;;4.80;;
56255;SDS011;57229;51.432;-2.598;2023-11-21T10:49:21;5.15;;;4.75;;
56255;SDS011;57229;51.432;-2.598;2023-11-21T10:51:51;5.85;;;5.32;;
56255;SDS011;57229;51.432;-2.598;2023-11-21T10:54:21;5.68;;;5.28;;
56255;SDS011;57229;51.432;-2.598;2023-11-21T10:56:50;6.15;;;5.40;;
56255;SDS011;57229;51.432;-2.598;2023-11-21T10:59:22;6.32;;;5.22;;
56255;SDS011;57229;51.432;-2.598;2023-11-21T11:01:50;7.43;;;5.45;;
56255;SDS011;57229;51.432;-2.598;2023-11-21T11:04:20;6.93;;;5.07;;
56255;SDS011;57229;51.432;-2.598;2023-11-21T11:07:08;6.53;;;5.43;;
56255;SDS011;57229;51.432;-2.598;2023-11-21T11:09:37;5.82;;;5.40;;
56255;SDS011;57229;51.432;-2.598;2023-11-21T11:12:02;6.05;;;5.45;;
56255;SDS011;57229;51.432;-2.598;2023-11-21T11:14:31;6.50;;;5.70;;
56255;SDS011;57229;51.432;-2.598;2023-11-21T11:16:58;6.78;;;5.60;;
56255;SDS011;57229;51.432;-2.598;2023-11-21T11:19:25;7.78;;;5.53;;
56255;SDS011;57229;51.432;-2.598;2023-11-21T11:21:55;6.53;;;6.03;;
56255;SDS011;57229;51.432;-2.598;2023-11-21T11:32:43;8.18;;;5.78;;
56255;SDS011;57229;51.432;-2.598;2023-11-21T11:35:33;6.45;;;5.70;;
56255;SDS011;57229;51.432;-2.598;2023-11-21T11:38:06;5.97;;;5.57;;
56255;SDS011;57229;51.432;-2.598;2023-11-21T11:40:44;6.55;;;5.90;;
56255;SDS011;57229;51.432;-2.598;2023-11-21T11:43:11;6.20;;;5.60;;
56255;SDS011;57229;51.432;-2.598;2023-11-21T11:45:37;6.63;;;5.78;;
56255;SDS011;57229;51.432;-2.598;2023-11-21T11:48:10;6.60;;;5.78;;
56255;SDS011;57229;51.432;-2.598;2023-11-21T11:50:41;7.22;;;6.25;;
56255;SDS011;57229;51.432;-2.598;2023-11-21T11:53:28;6.10;;;5.43;;
56255;SDS011;57229;51.432;-2.598;2023-11-21T11:59:00;6.00;;;5.50;;
56255;SDS011;57229;51.432;-2.598;2023-11-21T12:01:34;6.28;;;5.68;;
56255;SDS011;57229;51.432;-2.598;2023-11-21T12:06:45;6.18;;;5.57;;
56255;SDS011;57229;51.432;-2.598;2023-11-21T12:09:17;7.35;;;5.75;;
56255;SDS011;57229;51.432;-2.598;2023-11-21T12:11:44;7.50;;;5.60;;
56255;SDS011;57229;51.432;-2.598;2023-11-21T12:14:11;6.13;;;5.53;;
56255;SDS011;57229;51.432;-2.598;2023-11-21T12:16:38;5.88;;;5.38;;
56255;SDS011;57229;51.432;-2.598;2023-11-21T12:19:04;6.45;;;5.63;;
56255;SDS011;57229;51.432;-2.598;2023-11-21T12:21:30;5.90;;;5.43;;
56255;SDS011;57229;51.432;-2.598;2023-11-21T12:23:57;6.20;;;5.72;;
56255;SDS011;57229;51.432;-2.598;2023-11-21T12:26:26;8.85;;;5.60;;
56255;SDS011;57229;51.432;-2.598;2023-11-21T12:28:55;10.35;;;5.97;;
56255;SDS011;57229;51.432;-2.598;2023-11-21T12:31:23;6.85;;;5.70;;
56255;SDS011;57229;51.432;-2.598;2023-11-21T12:33:49;6.35;;;5.72;;
56255;SDS011;57229;51.432;-2.598;2023-11-21T12:36:15;6.55;;;5.30;;
56255;SDS011;57229;51.432;-2.598;2023-11-21T12:38:41;5.95;;;5.45;;
56255;SDS011;57229;51.432;-2.598;2023-11-21T12:41:08;8.85;;;6.00;;
56255;SDS011;57229;51.432;-2.598;2023-11-21T12:43:35;6.95;;;5.50;;
56255;SDS011;57229;51.432;-2.598;2023-11-21T12:46:04;6.03;;;5.53;;
56255;SDS011;57229;51.432;-2.598;2023-11-21T12:48:38;6.00;;;5.40;;
56255;SDS011;57229;51.432;-2.598;2023-11-21T12:51:07;8.18;;;6.00;;
56255;SDS011;57229;51.432;-2.598;2023-11-21T12:53:33;6.18;;;5.65;;
56255;SDS011;57229;51.432;-2.598;2023-11-21T12:56:06;6.00;;;5.40;;
56255;SDS011;57229;51.432;-2.598;2023-11-21T12:58:34;7.07;;;6.38;;
56255;SDS011;57229;51.432;-2.598;2023-11-21T13:01:01;6.47;;;5.88;;
56255;SDS011;57229;51.432;-2.598;2023-11-21T13:03:29;6.75;;;6.10;;
56255;SDS011;57229;51.432;-2.598;2023-11-21T13:05:55;6.07;;;5.53;;
56255;SDS011;57229;51.432;-2.598;2023-11-21T13:08:24;5.93;;;5.40;;
56255;SDS011;57229;51.432;-2.598;2023-11-21T13:10:54;5.75;;;5.00;;
56255;SDS011;57229;51.432;-2.598;2023-11-21T13:13:21;6.90;;;6.30;;
56255;SDS011;57229;51.432;-2.598;2023-11-21T13:15:49;6.03;;;5.43;;
56255;SDS011;57229;51.432;-2.598;2023-11-21T13:18:17;5.85;;;5.35;;
56255;SDS011;57229;51.432;-2.598;2023-11-21T13:20:43;6.15;;;5.55;;
56255;SDS011;57229;51.432;-2.598;2023-11-21T13:23:10;6.55;;;5.97;;
56255;SDS011;57229;51.432;-2.598;2023-11-21T13:25:41;5.70;;;5.25;;
56255;SDS011;57229;51.432;-2.598;2023-11-21T13:28:07;5.80;;;5.35;;
56255;SDS011;57229;51.432;-2.598;2023-11-21T13:30:36;6.15;;;4.90;;
56255;SDS011;57229;51.432;-2.598;2023-11-21T13:33:04;5.75;;;4.82;;
56255;SDS011;57229;51.432;-2.598;2023-11-21T13:35:32;5.40;;;5.00;;
56255;SDS011;57229;51.432;-2.598;2023-11-21T13:38:12;6.35;;;5.20;;
56255;SDS011;57229;51.432;-2.598;2023-11-21T13:40:40;5.50;;;5.10;;
56255;SDS011;57229;51.432;-2.598;2023-11-21T13:43:11;5.18;;;4.70;;
56255;SDS011;57229;51.432;-2.598;2023-11-21T18:46:57;11.70;;;6.78;;
56255;SDS011;57229;51.432;-2.598;2023-11-21T18:49:27;8.35;;;6.72;;
56255;SDS011;57229;51.432;-2.598;2023-11-21T18:51:54;10.85;;;7.40;;
56255;SDS011;57229;51.432;-2.598;2023-11-21T18:54:21;9.98;;;7.28;;
56255;SDS011;57229;51.432;-2.598;2023-11-21T18:56:46;13.48;;;7.68;;
56255;SDS011;57229;51.432;-2.598;2023-11-21T18:59:13;11.55;;;7.97;;
56255;SDS011;57229;51.432;-2.598;2023-11-21T19:01:38;12.10;;;8.07;;
56255;SDS011;57229;51.432;-2.598;2023-11-21T19:04:06;8.52;;;7.72;;
56255;SDS011;57229;51.432;-2.598;2023-11-21T19:06:32;9.52;;;8.10;;
56255;SDS011;57229;51.432;-2.598;2023-11-21T19:08:58;9.18;;;8.00;;
56255;SDS011;57229;51.432;-2.598;2023-11-21T19:11:28;8.98;;;8.07;;
56255;SDS011;57229;51.432;-2.598;2023-11-21T19:13:54;10.02;;;8.27;;
56255;SDS011;57229;51.432;-2.598;2023-11-21T19:16:19;12.48;;;7.65;;
56255;SDS011;57229;51.432;-2.598;2023-11-21T19:18:46;8.63;;;7.72;;
56255;SDS011;57229;51.432;-2.598;2023-11-21T19:21:14;13.10;;;9.77;;
56255;SDS011;57229;51.432;-2.598;2023-11-21T19:23:40;11.35;;;9.20;;
56255;SDS011;57229;51.432;-2.598;2023-11-21T19:26:07;11.35;;;8.40;;
56255;SDS011;57229;51.432;-2.598;2023-11-21T19:28:33;14.75;;;10.80;;
56255;SDS011;57229;51.432;-2.598;2023-11-21T19:30:58;11.60;;;9.20;;
56255;SDS011;57229;51.432;-2.598;2023-11-21T19:33:24;13.32;;;8.75;;
56255;SDS011;57229;51.432;-2.598;2023-11-21T19:35:51;10.68;;;8.75;;
56255;SDS011;57229;51.432;-2.598;2023-11-21T19:38:17;9.07;;;8.13;;
56255;SDS011;57229;51.432;-2.598;2023-11-21T19:40:44;10.15;;;9.10;;
56255;SDS011;57229;51.432;-2.598;2023-11-21T19:43:10;10.68;;;9.18;;
56255;SDS011;57229;51.432;-2.598;2023-11-21T20:47:41;13.10;;;9.90;;
56255;SDS011;57229;51.432;-2.598;2023-11-21T20:50:08;11.48;;;9.40;;
56255;SDS011;57229;51.432;-2.598;2023-11-21T20:52:34;14.80;;;9.70;;
56255;SDS011;57229;51.432;-2.598;2023-11-21T20:55:00;21.65;;;10.93;;
56255;SDS011;57229;51.432;-2.598;2023-11-21T20:57:26;14.45;;;10.07;;
56255;SDS011;57229;51.432;-2.598;2023-11-21T20:59:52;13.82;;;10.10;;
56255;SDS011;57229;51.432;-2.598;2023-11-21T21:02:17;16.60;;;10.20;;
56255;SDS011;57229;51.432;-2.598;2023-11-21T21:04:43;12.20;;;9.55;;
56255;SDS011;57229;51.432;-2.598;2023-11-21T21:07:10;17.02;;;10.57;;
56255;SDS011;57229;51.432;-2.598;2023-11-21T21:09:36;12.80;;;11.10;;
56255;SDS011;57229;51.432;-2.598;2023-11-21T21:12:03;14.07;;;11.32;;
56255;SDS011;57229;51.432;-2.598;2023-11-21T21:14:29;17.05;;;10.43;;
56255;SDS011;57229;51.432;-2.598;2023-11-21T21:16:55;15.20;;;9.60;;
56255;SDS011;57229;51.432;-2.598;2023-11-21T21:19:24;13.85;;;10.55;;
56255;SDS011;57229;51.432;-2.598;2023-11-21T21:21:54;18.83;;;10.23;;
56255;SDS011;57229;51.432;-2.598;2023-11-21T21:24:19;12.90;;;10.27;;
56255;SDS011;57229;51.432;-2.598;2023-11-21T21:26:46;17.42;;;10.35;;
56255;SDS011;57229;51.432;-2.598;2023-11-21T21:29:12;13.73;;;10.20;;
56255;SDS011;57229;51.432;-2.598;2023-11-21T21:31:38;15.40;;;10.82;;
56255;SDS011;57229;51.432;-2.598;2023-11-21T21:34:04;20.08;;;12.38;;
56255;SDS011;57229;51.432;-2.598;2023-11-21T21:36:32;16.65;;;10.63;;
56255;SDS011;57229;51.432;-2.598;2023-11-21T21:38:58;13.18;;;10.80;;
56255;SDS011;57229;51.432;-2.598;2023-11-21T21:41:24;18.73;;;11.45;;
56255;SDS011;57229;51.432;-2.598;2023-11-21T21:43:50;17.10;;;12.52;;
56255;SDS011;57229;51.432;-2.598;2023-11-21T21:46:17;13.43;;;9.85;;
56255;SDS011;57229;51.432;-2.598;2023-11-21T21:48:43;15.18;;;11.70;;
56255;SDS011;57229;51.432;-2.598;2023-11-21T21:51:16;16.02;;;11.20;;
56255;SDS011;57229;51.432;-2.598;2023-11-21T21:53:46;16.40;;;11.05;;
56255;SDS011;57229;51.432;-2.598;2023-11-21T21:56:12;18.80;;;11.73;;
56255;SDS011;57229;51.432;-2.598;2023-11-21T21:58:41;17.42;;;11.90;;
56255;SDS011;57229;51.432;-2.598;2023-11-21T22:01:07;18.05;;;12.65;;
56255;SDS011;57229;51.432;-2.598;2023-11-21T22:03:33;17.90;;;11.93;;
56255;SDS011;57229;51.432;-2.598;2023-11-21T22:05:59;17.58;;;11.48;;
56255;SDS011;57229;51.432;-2.598;2023-11-21T22:08:26;15.82;;;11.82;;
56255;SDS011;57229;51.432;-2.598;2023-11-21T22:10:52;13.98;;;11.02;;
56255;SDS011;57229;51.432;-2.598;2023-11-21T22:13:21;18.90;;;11.85;;
56255;SDS011;57229;51.432;-2.598;2023-11-21T22:15:46;15.13;;;10.95;;
56255;SDS011;57229;51.432;-2.598;2023-11-21T22:18:12;19.02;;;11.80;;
56255;SDS011;57229;51.432;-2.598;2023-11-21T22:20:38;20.63;;;12.50;;
56255;SDS011;57229;51.432;-2.598;2023-11-21T22:23:04;16.63;;;12.57;;
56255;SDS011;57229;51.432;-2.598;2023-11-21T22:25:30;16.73;;;11.70;;
56255;SDS011;57229;51.432;-2.598;2023-11-21T22:27:56;16.13;;;11.82;;
56255;SDS011;57229;51.432;-2.598;2023-11-21T22:30:22;18.70;;;12.80;;
56255;SDS011;57229;51.432;-2.598;2023-11-21T22:32:49;23.40;;;14.70;;
56255;SDS011;57229;51.432;-2.598;2023-11-21T22:35:17;24.48;;;14.68;;
56255;SDS011;57229;51.432;-2.598;2023-11-21T22:37:43;19.90;;;13.23;;
56255;SDS011;57229;51.432;-2.598;2023-11-21T22:40:08;19.48;;;12.80;;
56255;SDS011;57229;51.432;-2.598;2023-11-21T22:42:35;19.83;;;13.20;;
56255;SDS011;57229;51.432;-2.598;2023-11-21T22:45:06;18.95;;;13.27;;
56255;SDS011;57229;51.432;-2.598;2023-11-21T22:47:35;22.73;;;13.93;;
56255;SDS011;57229;51.432;-2.598;2023-11-21T22:50:01;21.42;;;13.75;;
56255;SDS011;57229;51.432;-2.598;2023-11-21T22:52:27;22.52;;;15.18;;
56255;SDS011;57229;51.432;-2.598;2023-11-21T22:54:54;21.63;;;14.48;;
56255;SDS011;57229;51.432;-2.598;2023-11-21T22:57:19;22.42;;;15.82;;
56255;SDS011;57229;51.432;-2.598;2023-11-21T22:59:45;24.30;;;16.15;;
56255;SDS011;57229;51.432;-2.598;2023-11-21T23:02:11;22.92;;;15.50;;
56255;SDS011;57229;51.432;-2.598;2023-11-21T23:04:37;22.77;;;16.13;;
56255;SDS011;57229;51.432;-2.598;2023-11-21T23:07:03;26.45;;;16.02;;
56255;SDS011;57229;51.432;-2.598;2023-11-21T23:09:29;23.40;;;15.95;;
56255;SDS011;57229;51.432;-2.598;2023-11-21T23:11:56;25.85;;;15.88;;
56255;SDS011;57229;51.432;-2.598;2023-11-21T23:14:22;23.02;;;16.23;;
56255;SDS011;57229;51.432;-2.598;2023-11-21T23:16:51;26.38;;;16.98;;
56255;SDS011;57229;51.432;-2.598;2023-11-21T23:19:18;25.48;;;16.58;;
56255;SDS011;57229;51.432;-2.598;2023-11-21T23:21:45;22.80;;;15.75;;
56255;SDS011;57229;51.432;-2.598;2023-11-21T23:24:11;22.75;;;15.80;;
56255;SDS011;57229;51.432;-2.598;2023-11-21T23:26:43;24.55;;;16.75;;
56255;SDS011;57229;51.432;-2.598;2023-11-21T23:29:09;24.45;;;16.33;;
56255;SDS011;57229;51.432;-2.598;2023-11-21T23:31:35;22.90;;;16.13;;
56255;SDS011;57229;51.432;-2.598;2023-11-21T23:34:01;28.10;;;16.63;;
56255;SDS011;57229;51.432;-2.598;2023-11-21T23:36:27;26.38;;;15.07;;
56255;SDS011;57229;51.432;-2.598;2023-11-21T23:38:53;26.85;;;15.20;;
56255;SDS011;57229;51.432;-2.598;2023-11-21T23:41:18;25.52;;;14.88;;
56255;SDS011;57229;51.432;-2.598;2023-11-21T23:43:48;25.85;;;15.73;;
56255;SDS011;57229;51.432;-2.598;2023-11-21T23:46:16;22.40;;;15.68;;
56255;SDS011;57229;51.432;-2.598;2023-11-21T23:48:42;21.52;;;13.82;;
56255;SDS011;57229;51.432;-2.598;2023-11-21T23:51:08;25.20;;;13.95;;
56255;SDS011;57229;51.432;-2.598;2023-11-21T23:53:35;20.83;;;14.48;;
56255;SDS011;57229;51.432;-2.598;2023-11-21T23:56:01;21.88;;;14.20;;
56255;SDS011;57229;51.432;-2.598;2023-11-21T23:58:28;23.25;;;14.52;;
